createdAt,value
2022-09-03T00:03:17.680Z,101241.96
2022-09-03T00:08:33.453Z,101239.02
2022-09-03T00:13:45.901Z,101243.39
2022-09-03T00:18:56.997Z,101244.10
2022-09-03T00:24:07.268Z,101244.13
2022-09-03T00:29:33.106Z,101238.77
2022-09-03T00:34:43.669Z,101235.33
2022-09-03T00:39:50.140Z,101232.92
2022-09-03T00:45:09.172Z,101232.76
2022-09-03T00:50:26.982Z,101234.84
2022-09-03T00:55:47.342Z,101236.74
2022-09-03T01:00:53.476Z,101242.13
2022-09-03T01:06:12.582Z,101245.23
2022-09-03T01:11:27.861Z,101242.11
2022-09-03T01:16:40.305Z,101244.53
2022-09-03T01:22:10.146Z,101239.68
2022-09-03T01:27:30.520Z,101238.98
2022-09-03T01:32:45.540Z,101248.85
2022-09-03T01:38:07.762Z,101238.13
2022-09-03T01:43:34.108Z,101244.20
2022-09-03T01:48:52.278Z,101242.83
2022-09-03T01:54:17.988Z,101239.04
2022-09-03T01:59:31.798Z,101236.93
2022-09-03T02:04:37.739Z,101233.66
2022-09-03T02:09:43.826Z,101230.89
2022-09-03T02:14:50.966Z,101226.57
2022-09-03T02:19:57.266Z,101222.25
2022-09-03T02:25:03.747Z,101222.05
2022-09-03T02:30:11.716Z,101224.64
2022-09-03T02:35:18.258Z,101217.38
2022-09-03T02:40:24.410Z,101214.42
2022-09-03T02:45:31.677Z,101215.47
2022-09-03T02:50:42.434Z,101217.70
2022-09-03T02:55:48.434Z,101216.65
2022-09-03T03:00:54.910Z,101220.48
2022-09-03T03:06:03.729Z,101211.86
2022-09-03T03:11:09.947Z,101210.13
2022-09-03T03:16:17.179Z,101211.17
2022-09-03T03:21:23.114Z,101213.60
2022-09-03T03:26:29.001Z,101219.83
2022-09-03T03:31:36.570Z,101217.92
2022-09-03T03:36:42.476Z,101221.89
2022-09-03T03:41:48.514Z,101229.66
2022-09-03T03:46:54.241Z,101234.13
2022-09-03T03:52:00.322Z,101239.11
2022-09-03T03:57:06.436Z,101244.45
2022-09-03T04:02:12.488Z,101246.33
2022-09-03T04:07:18.444Z,101245.48
2022-09-03T04:12:24.784Z,101243.06
2022-09-03T04:17:31.315Z,101244.13
2022-09-03T04:22:37.192Z,101243.48
2022-09-03T04:27:44.289Z,101240.41
2022-09-03T04:32:56.221Z,101247.67
2022-09-03T04:38:04.297Z,101248.39
2022-09-03T04:43:10.149Z,101250.31
2022-09-03T04:48:16.186Z,101250.98
2022-09-03T04:53:22.825Z,101254.09
2022-09-03T04:58:28.890Z,101265.37
2022-09-03T05:03:34.916Z,101266.62
2022-09-03T05:08:40.854Z,101257.14
2022-09-03T05:13:49.240Z,101259.73
2022-09-03T05:18:56.944Z,101262.83
2022-09-03T05:24:03.474Z,101263.73
2022-09-03T05:29:11.604Z,101275.23
2022-09-03T05:34:18.394Z,101272.96
2022-09-03T05:39:24.974Z,101263.21
2022-09-03T05:44:31.693Z,101263.64
2022-09-03T05:49:37.636Z,101258.06
2022-09-03T05:54:43.482Z,101258.19
2022-09-03T05:59:49.890Z,101256.75
2022-09-03T06:04:56.182Z,101254.35
2022-09-03T06:10:02.239Z,101251.36
2022-09-03T06:15:09.710Z,101247.95
2022-09-03T06:20:15.510Z,101249.95
2022-09-03T06:25:21.824Z,101253.02
2022-09-03T06:30:27.781Z,101249.47
2022-09-03T06:35:40.994Z,101246.47
2022-09-03T06:40:58.266Z,101255.66
2022-09-03T06:46:07.163Z,101247.88
2022-09-03T06:51:15.640Z,101247.52
2022-09-03T06:56:27.193Z,101250.05
2022-09-03T07:01:34.401Z,101249.37
2022-09-03T07:06:42.471Z,101244.30
2022-09-03T07:11:49.395Z,101246.36
2022-09-03T07:16:55.253Z,101240.10
2022-09-03T07:22:01.814Z,101245.45
2022-09-03T07:27:11.852Z,101249.41
2022-09-03T07:32:21.065Z,101257.61
2022-09-03T07:37:27.158Z,101257.00
2022-09-03T07:42:35.651Z,101260.77
2022-09-03T07:47:49.601Z,101262.21
2022-09-03T07:52:59.316Z,101251.49
2022-09-03T07:58:06.019Z,101249.07
2022-09-03T08:03:13.964Z,101249.54
2022-09-03T08:08:20.164Z,101248.33
2022-09-03T08:13:27.127Z,101256.79
2022-09-03T08:18:36.781Z,101258.33
2022-09-03T08:23:44.151Z,101257.49
2022-09-03T08:28:53.023Z,101253.48
2022-09-03T08:34:03.264Z,101249.66
2022-09-03T08:39:11.328Z,101250.30
2022-09-03T08:44:25.606Z,101242.06
2022-09-03T08:49:46.465Z,101241.62
2022-09-03T08:54:58.357Z,101237.41
2022-09-03T09:00:05.229Z,101235.20
2022-09-03T09:05:17.405Z,101233.77
2022-09-03T09:10:35.418Z,101226.65
2022-09-03T09:15:49.429Z,101223.95
2022-09-03T09:21:06.946Z,101224.16
2022-09-03T09:26:16.246Z,101222.53
2022-09-03T09:31:22.622Z,101219.00
2022-09-03T09:36:28.757Z,101218.27
2022-09-03T09:41:34.927Z,101225.02
2022-09-03T09:46:43.007Z,101221.43
2022-09-03T09:51:49.806Z,101214.24
2022-09-03T09:57:03.640Z,101212.05
2022-09-03T10:02:22.522Z,101213.00
2022-09-03T10:07:32.885Z,101208.67
2022-09-03T10:12:44.962Z,101205.35
2022-09-03T10:17:57.857Z,101205.46
2022-09-03T10:23:11.674Z,101199.64
2022-09-03T10:28:18.426Z,101200.25
2022-09-03T10:33:34.575Z,101195.26
2022-09-03T10:38:43.130Z,101182.46
2022-09-03T10:44:10.597Z,101185.90
2022-09-03T10:49:37.621Z,101184.56
2022-09-03T10:54:55.332Z,101178.20
2022-09-03T11:00:10.599Z,101172.81
2022-09-03T11:05:21.859Z,101168.09
2022-09-03T11:10:31.190Z,101166.30
2022-09-03T11:15:42.496Z,101157.84
2022-09-03T11:20:50.915Z,101158.46
2022-09-03T11:26:04.983Z,101158.48
2022-09-03T11:31:20.658Z,101154.47
2022-09-03T11:36:32.697Z,101148.36
2022-09-03T11:41:39.811Z,101147.52
2022-09-03T11:46:58.901Z,101149.17
2022-09-03T11:52:10.719Z,101146.81
2022-09-03T11:57:23.519Z,101145.79
2022-09-03T12:02:35.971Z,101139.84
2022-09-03T12:07:59.626Z,101137.16
2022-09-03T12:13:19.365Z,101129.58
2022-09-03T12:18:29.831Z,101121.80
2022-09-03T12:23:42.369Z,101114.14
2022-09-03T12:28:50.175Z,101109.11
2022-09-03T12:34:00.920Z,101100.63
2022-09-03T12:39:12.795Z,101098.83
2022-09-03T12:44:28.523Z,101093.07
2022-09-03T12:49:39.659Z,101089.24
2022-09-03T12:54:53.153Z,101082.30
2022-09-03T13:00:03.191Z,101079.59
2022-09-03T13:05:17.386Z,101081.36
2022-09-03T13:10:30.512Z,101077.25
2022-09-03T13:15:36.488Z,101073.35
2022-09-03T13:20:54.032Z,101073.38
2022-09-03T13:26:08.923Z,101070.08
2022-09-03T13:31:30.331Z,101064.65
2022-09-03T13:36:45.096Z,101053.23
2022-09-03T13:41:55.171Z,101048.64
2022-09-03T13:47:08.482Z,101046.45
2022-09-03T13:52:22.857Z,101042.50
2022-09-03T13:57:40.011Z,101042.96
2022-09-03T14:02:53.107Z,101047.64
2022-09-03T14:08:09.423Z,101041.92
2022-09-03T14:13:22.900Z,101042.29
2022-09-03T14:18:39.221Z,101045.38
2022-09-03T14:23:49.227Z,101043.52
2022-09-03T14:29:02.556Z,101041.73
2022-09-03T14:34:13.621Z,101036.95
2022-09-03T14:39:32.703Z,101035.24
2022-09-03T14:45:06.462Z,101036.91
2022-09-03T14:50:27.873Z,101029.83
2022-09-03T14:56:06.403Z,101034.83
2022-09-03T15:01:18.981Z,101033.42
2022-09-03T15:06:37.623Z,101029.70
2022-09-03T15:11:52.662Z,101029.50
2022-09-03T15:17:05.251Z,101032.45
2022-09-03T15:22:27.371Z,101036.27
2022-09-03T15:27:56.771Z,101034.41
2022-09-03T15:33:16.511Z,101035.39
2022-09-03T15:38:35.229Z,101035.86
2022-09-03T15:43:42.434Z,101030.05
2022-09-03T15:49:02.648Z,101027.77
2022-09-03T15:54:16.582Z,101028.80
2022-09-03T15:59:30.410Z,101040.77
2022-09-03T16:04:53.322Z,101039.52
2022-09-03T16:10:24.140Z,101038.42
2022-09-03T16:15:35.021Z,101048.28
2022-09-03T16:20:48.098Z,101049.69
2022-09-03T16:26:00.658Z,101049.30
2022-09-03T16:31:15.777Z,101050.39
2022-09-03T16:36:37.741Z,101055.27
2022-09-03T16:41:52.625Z,101054.66
2022-09-03T16:47:07.845Z,101054.04
2022-09-03T16:52:29.757Z,101052.91
2022-09-03T16:58:00.105Z,101049.19
2022-09-03T17:03:26.547Z,101055.41
2022-09-03T17:08:40.493Z,101061.51
2022-09-03T17:14:09.141Z,101064.89
2022-09-03T17:19:23.934Z,101069.33
2022-09-03T17:24:38.669Z,101076.79
2022-09-03T17:30:02.520Z,101074.66
2022-09-03T17:35:17.567Z,101081.99
2022-09-03T17:40:31.560Z,101086.91
2022-09-03T17:45:50.112Z,101087.79
2022-09-03T17:51:01.709Z,101091.80
2022-09-03T17:56:19.018Z,101097.34
2022-09-03T18:01:29.457Z,101105.58
2022-09-03T18:06:46.277Z,101112.20
2022-09-03T18:11:58.372Z,101111.05
2022-09-03T18:17:09.398Z,101111.93
2022-09-03T18:22:34.382Z,101111.81
2022-09-03T18:28:03.540Z,101106.64
2022-09-03T18:33:28.503Z,101107.80
2022-09-03T18:38:56.301Z,101109.71
2022-09-03T18:44:31.054Z,101111.25
2022-09-03T18:50:03.519Z,101114.90
2022-09-03T18:55:38.189Z,101115.17
2022-09-03T19:01:16.021Z,101116.95
2022-09-03T19:06:49.505Z,101116.64
2022-09-03T19:12:29.958Z,101115.63
2022-09-03T19:18:13.536Z,101116.97
2022-09-03T19:23:38.493Z,101117.79
2022-09-03T19:29:06.555Z,101119.12
2022-09-03T19:34:45.819Z,101123.98
2022-09-03T19:40:29.686Z,101124.88
2022-09-03T19:46:05.601Z,101126.44
2022-09-03T19:51:37.683Z,101129.95
2022-09-03T19:57:04.143Z,101137.93
2022-09-03T20:02:29.997Z,101141.08
2022-09-03T20:07:55.701Z,101138.56
2022-09-03T20:13:13.401Z,101144.15
2022-09-03T20:18:33.914Z,101145.07
2022-09-03T20:23:47.749Z,101148.83
2022-09-03T20:29:27.738Z,101142.22
2022-09-03T20:34:45.002Z,101146.98
2022-09-03T20:40:04.839Z,101149.85
2022-09-03T20:45:17.945Z,101150.77
2022-09-03T20:50:43.839Z,101153.89
2022-09-03T20:55:54.787Z,101156.98
2022-09-03T21:01:05.003Z,101158.95
2022-09-03T21:06:22.715Z,101169.59
2022-09-03T21:11:37.309Z,101174.54
2022-09-03T21:16:57.425Z,101175.03
2022-09-03T21:22:15.389Z,101176.95
2022-09-03T21:27:26.041Z,101177.64
2022-09-03T21:32:39.617Z,101185.12
2022-09-03T21:37:54.717Z,101187.60
2022-09-03T21:43:09.811Z,101194.52
2022-09-03T21:48:20.452Z,101197.91
2022-09-03T21:53:33.222Z,101196.92
2022-09-03T21:58:53.840Z,101198.45
2022-09-03T22:04:00.360Z,101210.02
2022-09-03T22:09:13.825Z,101213.05
2022-09-03T22:14:21.485Z,101212.22
2022-09-03T22:19:27.995Z,101209.54
2022-09-03T22:24:44.550Z,101214.64
2022-09-03T22:30:00.537Z,101217.42
2022-09-03T22:35:24.250Z,101225.30
2022-09-03T22:40:39.554Z,101218.76
2022-09-03T22:46:01.764Z,101223.05
2022-09-03T22:51:09.313Z,101221.27
2022-09-03T22:56:21.983Z,101231.58
2022-09-03T23:01:34.748Z,101234.73
2022-09-03T23:06:53.637Z,101224.88
2022-09-03T23:12:06.674Z,101223.05
2022-09-03T23:17:18.834Z,101224.84
2022-09-03T23:22:31.225Z,101229.90
2022-09-03T23:27:42.057Z,101234.73
2022-09-03T23:32:50.177Z,101246.41
2022-09-03T23:38:16.865Z,101260.00
2022-09-03T23:44:00.358Z,101256.61
2022-09-03T23:49:23.322Z,101263.73
2022-09-03T23:54:39.066Z,101259.59
